createdAt,value
2019-05-05T00:02:06.889Z,100892.77
2019-05-05T00:04:45.485Z,100898.45
2019-05-05T00:07:17.917Z,100905.02
2019-05-05T00:09:48.956Z,100899.69
2019-05-05T00:12:37.497Z,100906.69
2019-05-05T00:15:15.958Z,100909.77
2019-05-05T00:17:46.932Z,100912.78
2019-05-05T00:20:17.891Z,100909.20
2019-05-05T00:22:48.848Z,100906.09
2019-05-05T00:25:19.820Z,100906.53
2019-05-05T00:27:50.779Z,100910.49
2019-05-05T00:30:21.739Z,100910.89
2019-05-05T00:32:54.885Z,100915.72
2019-05-05T00:35:26.015Z,100915.72
2019-05-05T00:37:56.979Z,100918.79
2019-05-05T00:40:27.943Z,100920.05
2019-05-05T00:42:58.896Z,100922.69
2019-05-05T00:45:30.926Z,100935.00
2019-05-05T00:48:04.703Z,100932.36
2019-05-05T00:50:35.660Z,100925.27
2019-05-05T00:53:06.626Z,100926.56
2019-05-05T00:55:37.581Z,100931.81
2019-05-05T00:58:08.557Z,100930.92
2019-05-05T01:00:54.800Z,100930.03
2019-05-05T01:03:26.620Z,100928.25
2019-05-05T01:06:01.925Z,100936.56
2019-05-05T01:08:35.100Z,100939.61
2019-05-05T01:11:06.072Z,100932.13
2019-05-05T01:13:37.027Z,100935.62
2019-05-05T01:16:07.987Z,100939.55
2019-05-05T01:18:38.939Z,100944.85
2019-05-05T01:21:09.928Z,100941.33
2019-05-05T01:23:40.896Z,100940.41
2019-05-05T01:26:11.857Z,100942.58
2019-05-05T01:28:44.633Z,100944.76
2019-05-05T01:31:17.118Z,100942.55
2019-05-05T01:33:56.885Z,100941.20
2019-05-05T01:36:27.843Z,100943.38
2019-05-05T01:39:00.446Z,100945.16
2019-05-05T01:41:36.038Z,100946.44
2019-05-05T01:44:06.994Z,100946.44
2019-05-05T01:46:37.953Z,100947.27
2019-05-05T01:49:08.917Z,100951.69
2019-05-05T01:51:39.893Z,100950.80
2019-05-05T01:54:10.850Z,100956.89
2019-05-05T01:56:44.401Z,100964.34
2019-05-05T01:59:14.938Z,100962.10
2019-05-05T02:01:45.897Z,100955.08
2019-05-05T02:04:16.864Z,100958.57
2019-05-05T02:06:47.824Z,100961.21
2019-05-05T02:09:18.777Z,100962.95
2019-05-05T02:11:49.742Z,100961.67
2019-05-05T02:14:20.696Z,100959.03
2019-05-05T02:16:51.725Z,100964.31
2019-05-05T02:19:24.779Z,100962.10
2019-05-05T02:21:55.709Z,100962.10
2019-05-05T02:24:26.655Z,100964.31
2019-05-05T02:26:57.883Z,100958.14
2019-05-05T02:29:35.360Z,100962.98
2019-05-05T02:32:21.582Z,100963.84
2019-05-05T02:34:56.299Z,100968.63
2019-05-05T02:37:27.925Z,100972.52
2019-05-05T02:40:06.346Z,100975.58
2019-05-05T02:42:31.679Z,100974.72
2019-05-05T02:45:06.177Z,100983.95
2019-05-05T02:47:56.070Z,100987.02
2019-05-05T02:50:46.721Z,100983.95
2019-05-05T02:53:04.176Z,100992.25
2019-05-05T02:55:35.267Z,100990.47
2019-05-05T02:58:06.227Z,100989.16
2019-05-05T03:00:39.521Z,100988.77
2019-05-05T03:03:13.500Z,100990.08
2019-05-05T03:05:44.574Z,101001.95
2019-05-05T03:08:15.701Z,101001.09
2019-05-05T03:10:46.729Z,101001.09
2019-05-05T03:13:17.757Z,100995.81
2019-05-05T03:15:58.706Z,101000.20
2019-05-05T03:18:29.662Z,100991.01
2019-05-05T03:21:04.664Z,101002.41
2019-05-05T03:23:34.126Z,101007.69
2019-05-05T03:26:05.278Z,101003.73
2019-05-05T03:28:57.175Z,101013.39
2019-05-05T03:31:28.205Z,101013.81
2019-05-05T03:34:01.398Z,101017.27
2019-05-05T03:36:33.890Z,101013.73
2019-05-05T03:39:07.288Z,101014.20
2019-05-05T03:41:39.912Z,101012.42
2019-05-05T03:44:28.891Z,101019.91
2019-05-05T03:46:59.924Z,101020.33
2019-05-05T03:49:30.879Z,101027.31
2019-05-05T03:52:01.940Z,101027.70
2019-05-05T03:54:34.269Z,101029.48
2019-05-05T03:57:10.938Z,101027.70
2019-05-05T03:59:44.291Z,101034.72
2019-05-05T04:02:23.348Z,101035.57
2019-05-05T04:04:55.661Z,101039.95
2019-05-05T04:07:26.629Z,101039.06
2019-05-05T04:09:57.646Z,101043.41
2019-05-05T04:12:28.605Z,101046.05
2019-05-05T04:15:00.731Z,101051.78
2019-05-05T04:17:48.630Z,101051.77
2019-05-05T04:20:19.351Z,101045.58
2019-05-05T04:22:50.314Z,101052.12
2019-05-05T04:25:21.272Z,101059.56
2019-05-05T04:27:53.819Z,101059.60
2019-05-05T04:30:24.877Z,101061.81
2019-05-05T04:32:55.823Z,101063.59
2019-05-05T04:35:26.799Z,101071.09
2019-05-05T04:37:57.761Z,101064.96
2019-05-05T04:40:28.723Z,101081.71
2019-05-05T04:42:59.681Z,101079.55
2019-05-05T04:45:30.636Z,101086.63
2019-05-05T04:48:04.305Z,101080.94
2019-05-05T04:50:44.057Z,101080.55
2019-05-05T04:53:17.269Z,101087.58
2019-05-05T04:55:48.249Z,101087.58
2019-05-05T04:58:19.202Z,101085.86
2019-05-05T05:00:50.172Z,101094.75
2019-05-05T05:03:28.624Z,101096.11
2019-05-05T05:06:04.207Z,101091.80
2019-05-05T05:08:35.185Z,101099.79
2019-05-05T05:11:06.146Z,101102.97
2019-05-05T05:13:37.144Z,101100.41
2019-05-05T05:16:08.109Z,101097.41
2019-05-05T05:18:39.828Z,101100.55
2019-05-05T05:21:10.798Z,101102.45
2019-05-05T05:23:41.779Z,101102.98
2019-05-05T05:26:13.872Z,101107.44
2019-05-05T05:28:45.070Z,101111.50
2019-05-05T05:31:16.017Z,101110.68
2019-05-05T05:33:46.996Z,101121.34
2019-05-05T05:36:17.977Z,101124.94
2019-05-05T05:38:50.569Z,101122.40
2019-05-05T05:41:23.931Z,101128.61
2019-05-05T05:43:57.435Z,101130.45
2019-05-05T05:46:44.817Z,101141.08
2019-05-05T05:49:17.493Z,101131.83
2019-05-05T05:51:48.483Z,101140.22
2019-05-05T05:54:19.443Z,101145.57
2019-05-05T05:56:50.427Z,101143.85
2019-05-05T05:59:21.387Z,101153.59
2019-05-05T06:02:06.099Z,101150.98
2019-05-05T06:04:26.704Z,101146.16
2019-05-05T06:06:57.656Z,101147.91
2019-05-05T06:09:28.650Z,101153.19
2019-05-05T06:11:59.614Z,101161.58
2019-05-05T06:14:30.576Z,101176.60
2019-05-05T06:17:01.780Z,101165.64
2019-05-05T06:19:33.776Z,101178.02
2019-05-05T06:22:05.016Z,101178.91
2019-05-05T06:24:35.970Z,101177.66
2019-05-05T06:27:06.961Z,101170.18
2019-05-05T06:29:37.922Z,101180.78
2019-05-05T06:32:08.926Z,101179.92
2019-05-05T06:34:39.900Z,101179.49
2019-05-05T06:37:10.861Z,101181.24
2019-05-05T06:39:43.824Z,101176.02
2019-05-05T06:42:14.273Z,101181.36
2019-05-05T06:44:46.901Z,101184.50
2019-05-05T06:47:19.508Z,101189.84
2019-05-05T06:49:50.489Z,101189.91
2019-05-05T06:52:21.478Z,101193.03
2019-05-05T06:54:54.298Z,101194.01
2019-05-05T06:57:25.312Z,101194.09
2019-05-05T06:59:56.275Z,101192.35
2019-05-05T07:02:27.339Z,101200.38
2019-05-05T07:04:58.335Z,101196.89
2019-05-05T07:07:29.301Z,101199.17
2019-05-05T07:10:00.833Z,101202.77
2019-05-05T07:12:31.797Z,101202.35
2019-05-05T07:15:04.231Z,101210.31
2019-05-05T07:17:35.436Z,101216.53
2019-05-05T07:20:07.428Z,101217.44
2019-05-05T07:22:38.389Z,101214.38
2019-05-05T07:25:09.554Z,101219.30
2019-05-05T07:27:40.541Z,101215.34
2019-05-05T07:30:13.614Z,101216.28
2019-05-05T07:32:44.420Z,101216.34
2019-05-05T07:35:19.832Z,101215.06
2019-05-05T07:37:50.796Z,101219.55
2019-05-05T07:40:24.022Z,101216.48
2019-05-05T07:42:54.457Z,101212.55
2019-05-05T07:45:25.936Z,101218.83
2019-05-05T07:47:57.011Z,101211.34
2019-05-05T07:50:32.130Z,101210.52
2019-05-05T07:53:13.856Z,101211.86
2019-05-05T07:55:34.344Z,101207.48
2019-05-05T07:58:05.309Z,101207.92
2019-05-05T08:00:36.311Z,101205.74
2019-05-05T08:03:07.281Z,101199.13
2019-05-05T08:05:38.290Z,101203.58
2019-05-05T08:08:09.319Z,101206.28
2019-05-05T08:10:40.299Z,101204.55
2019-05-05T08:13:11.366Z,101213.47
2019-05-05T08:15:56.898Z,101203.34
2019-05-05T08:18:24.349Z,101207.39
2019-05-05T08:20:57.038Z,101201.23
2019-05-05T08:23:32.671Z,101207.89
2019-05-05T08:26:07.961Z,101206.14
2019-05-05T08:28:40.805Z,101205.23
2019-05-05T08:31:19.189Z,101210.55
2019-05-05T08:33:50.186Z,101204.84
2019-05-05T08:36:23.360Z,101211.03
2019-05-05T08:38:54.607Z,101207.97
2019-05-05T08:41:25.683Z,101211.55
2019-05-05T08:43:56.657Z,101204.50
2019-05-05T08:46:27.644Z,101211.59
2019-05-05T08:48:59.764Z,101210.27
2019-05-05T08:51:30.736Z,101216.45
2019-05-05T08:54:03.789Z,101208.05
2019-05-05T08:56:34.440Z,101208.05
2019-05-05T08:59:05.388Z,101216.00
2019-05-05T09:01:36.605Z,101210.70
2019-05-05T09:04:07.582Z,101217.78
2019-05-05T09:06:39.259Z,101213.84
2019-05-05T09:11:40.434Z,101220.10
2019-05-05T09:14:11.429Z,101225.86
2019-05-05T09:16:44.619Z,101225.02
2019-05-05T09:19:24.004Z,101221.05
2019-05-05T09:21:55.091Z,101221.95
2019-05-05T09:24:30.660Z,101226.82
2019-05-05T09:27:03.716Z,101226.84
2019-05-05T09:29:38.865Z,101221.06
2019-05-05T09:32:10.234Z,101225.95
